Time;durP1;ratioP1;P1;durP2;ratioP2;P2;SDS_P1;SDS_P2;PMS_P1;PMS_P2;Temp;Humidity;BMP_temperature;BMP_pressure;BME280_temperature;BME280_humidity;BME280_pressure;Samples;Min_cycle;Max_cycle;Signal;HPM_P1;HPM_P2
2023/03/08 00:00:09;;;;;;;24.98;3.97;;;;;;;;;;5030291;28;20025;-42
2023/03/08 00:02:36;;;;;;;30.25;3.60;;;;;;;;;;5029896;28;20068;-47
2023/03/08 00:05:03;;;;;;;26.10;4.43;;;;;;;;;;5028321;28;20040;-45
2023/03/08 00:07:30;;;;;;;29.15;4.43;;;;;;;;;;5033503;28;20028;-47
2023/03/08 00:09:57;;;;;;;35.17;3.85;;;;;;;;;;5035507;28;20037;-49
2023/03/08 00:12:24;;;;;;;27.67;4.20;;;;;;;;;;5030914;28;20104;-46
2023/03/08 00:14:52;;;;;;;33.25;4.30;;;;;;;;;;5030852;28;20061;-45
2023/03/08 00:17:19;;;;;;;21.65;4.22;;;;;;;;;;5030813;28;20699;-46
2023/03/08 00:19:46;;;;;;;27.38;3.60;;;;;;;;;;5030611;28;20033;-44
2023/03/08 00:22:13;;;;;;;23.23;3.38;;;;;;;;;;5030828;28;20065;-44
2023/03/08 00:24:42;;;;;;;26.83;3.97;;;;;;;;;;5030774;28;20834;-47
2023/03/08 00:27:09;;;;;;;39.25;4.40;;;;;;;;;;5030598;28;20033;-47
2023/03/08 00:29:36;;;;;;;29.33;3.78;;;;;;;;;;5030527;28;20025;-47
2023/03/08 00:32:03;;;;;;;34.42;3.42;;;;;;;;;;5030752;28;20098;-44
2023/03/08 00:34:30;;;;;;;16.67;2.35;;;;;;;;;;5030199;28;20033;-47
2023/03/08 00:36:57;;;;;;;37.03;3.65;;;;;;;;;;5030414;28;20017;-45
2023/03/08 00:39:24;;;;;;;36.70;4.55;;;;;;;;;;5030311;28;20124;-44
2023/03/08 00:41:51;;;;;;;41.90;5.22;;;;;;;;;;5030020;28;20486;-47
2023/03/08 00:44:18;;;;;;;35.08;5.88;;;;;;;;;;5030102;28;20037;-48
2023/03/08 00:46:45;;;;;;;42.65;5.05;;;;;;;;;;5030477;28;20034;-47
2023/03/08 00:49:13;;;;;;;30.20;4.82;;;;;;;;;;5030038;28;20025;-44
2023/03/08 00:51:40;;;;;;;35.85;4.82;;;;;;;;;;5030437;28;20488;-48
2023/03/08 00:54:07;;;;;;;23.70;4.30;;;;;;;;;;5030434;28;20467;-47
2023/03/08 00:56:34;;;;;;;28.58;4.78;;;;;;;;;;5030343;28;20391;-45
2023/03/08 00:59:01;;;;;;;30.00;4.93;;;;;;;;;;5029953;28;20021;-44
2023/03/08 01:01:28;;;;;;;39.85;4.78;;;;;;;;;;5030430;28;20074;-46
2023/03/08 01:03:55;;;;;;;40.33;4.70;;;;;;;;;;5029749;28;20045;-47
2023/03/08 01:06:22;;;;;;;43.58;4.85;;;;;;;;;;5030337;28;20025;-47
2023/03/08 01:08:49;;;;;;;31.52;4.97;;;;;;;;;;5029948;28;20033;-49
2023/03/08 01:11:17;;;;;;;33.13;5.65;;;;;;;;;;5030431;28;20029;-44
2023/03/08 01:13:44;;;;;;;35.10;5.32;;;;;;;;;;5030402;28;20025;-47
2023/03/08 01:16:19;;;;;;;41.40;5.30;;;;;;;;;;5032732;28;20095;-45
2023/03/08 01:18:46;;;;;;;31.35;5.00;;;;;;;;;;5034137;28;20029;-44
2023/03/08 01:21:13;;;;;;;36.25;5.13;;;;;;;;;;5033857;28;20522;-46
2023/03/08 01:23:40;;;;;;;27.80;4.68;;;;;;;;;;5033386;28;20546;-40
2023/03/08 01:26:09;;;;;;;30.73;4.85;;;;;;;;;;5023473;28;20030;-40
2023/03/08 01:28:36;;;;;;;25.40;5.10;;;;;;;;;;5020483;28;20030;-41
2023/03/08 01:31:05;;;;;;;22.42;4.00;;;;;;;;;;5021702;28;20116;-44
2023/03/08 01:33:32;;;;;;;24.42;4.20;;;;;;;;;;5025179;28;20167;-44
2023/03/08 01:35:59;;;;;;;21.02;4.03;;;;;;;;;;5025690;28;20461;-43
2023/03/08 01:38:26;;;;;;;18.90;4.45;;;;;;;;;;5026980;28;20060;-43
2023/03/08 01:40:57;;;;;;;32.85;5.05;;;;;;;;;;5029323;28;20541;-40
2023/03/08 01:43:34;;;;;;;40.85;5.65;;;;;;;;;;5022884;28;20121;-42
2023/03/08 01:46:11;;;;;;;32.47;4.88;;;;;;;;;;5023490;28;20025;-45
2023/03/08 01:48:40;;;;;;;22.75;3.85;;;;;;;;;;5023555;28;20026;-44
2023/03/08 01:51:09;;;;;;;23.25;3.53;;;;;;;;;;5022587;28;20029;-41
2023/03/08 01:53:37;;;;;;;18.02;3.22;;;;;;;;;;5016473;28;20097;-43
2023/03/08 01:56:05;;;;;;;25.00;3.47;;;;;;;;;;5013644;28;20479;-44
2023/03/08 01:58:32;;;;;;;9.93;2.67;;;;;;;;;;5014088;28;20030;-44
2023/03/08 02:00:59;;;;;;;13.90;2.67;;;;;;;;;;5013877;28;20022;-43
2023/03/08 02:03:26;;;;;;;9.35;1.95;;;;;;;;;;5013171;28;20464;-46
2023/03/08 02:05:53;;;;;;;8.65;2.03;;;;;;;;;;5013747;28;20030;-43
2023/03/08 02:08:20;;;;;;;12.68;2.92;;;;;;;;;;5013647;28;20025;-43
2023/03/08 02:10:49;;;;;;;11.48;2.47;;;;;;;;;;5013663;28;20049;-43
2023/03/08 02:13:16;;;;;;;8.73;2.40;;;;;;;;;;5013910;28;20049;-45
2023/03/08 02:15:43;;;;;;;7.38;2.20;;;;;;;;;;5013569;28;20422;-43
2023/03/08 02:18:10;;;;;;;9.57;2.35;;;;;;;;;;5013693;28;20022;-43
2023/03/08 02:20:38;;;;;;;9.15;2.30;;;;;;;;;;5013565;28;20080;-44
2023/03/08 02:23:09;;;;;;;11.75;2.30;;;;;;;;;;5013490;28;20112;-43
2023/03/08 02:25:36;;;;;;;10.27;2.40;;;;;;;;;;5013447;28;20057;-44
2023/03/08 02:28:04;;;;;;;8.20;2.13;;;;;;;;;;5028163;28;20069;-43
2023/03/08 02:30:32;;;;;;;9.98;2.40;;;;;;;;;;5013426;28;20036;-43
2023/03/08 02:32:59;;;;;;;14.88;2.60;;;;;;;;;;5013298;28;20034;-44
2023/03/08 02:35:26;;;;;;;7.30;2.20;;;;;;;;;;5013292;28;20502;-43
2023/03/08 02:37:53;;;;;;;14.00;3.00;;;;;;;;;;5013316;28;20030;-43
2023/03/08 02:40:20;;;;;;;8.40;2.72;;;;;;;;;;5013289;28;20029;-43
2023/03/08 02:42:47;;;;;;;11.85;2.83;;;;;;;;;;5013139;28;20078;-44
2023/03/08 02:45:14;;;;;;;7.63;2.70;;;;;;;;;;5013136;28;20116;-43
2023/03/08 02:47:41;;;;;;;6.22;2.67;;;;;;;;;;5012949;28;20395;-43
2023/03/08 02:50:09;;;;;;;10.90;2.80;;;;;;;;;;5013046;28;20026;-44
2023/03/08 02:52:36;;;;;;;6.53;2.90;;;;;;;;;;5012985;28;20030;-43
2023/03/08 02:55:03;;;;;;;8.88;3.30;;;;;;;;;;5012913;28;20037;-43
2023/03/08 02:57:30;;;;;;;5.38;3.15;;;;;;;;;;5012686;28;20451;-43
2023/03/08 02:59:57;;;;;;;9.25;3.58;;;;;;;;;;5012923;28;20030;-46
2023/03/08 03:02:24;;;;;;;8.32;3.22;;;;;;;;;;5012509;28;20377;-43
2023/03/08 03:04:51;;;;;;;12.13;3.33;;;;;;;;;;5012871;28;20108;-43
2023/03/08 03:07:18;;;;;;;12.80;3.60;;;;;;;;;;5012637;28;20030;-43
2023/03/08 03:09:45;;;;;;;8.57;3.42;;;;;;;;;;5012744;28;20025;-44
2023/03/08 03:12:12;;;;;;;10.20;3.50;;;;;;;;;;5012671;28;20079;-43
2023/03/08 03:14:39;;;;;;;13.30;3.90;;;;;;;;;;5012617;28;20361;-43
2023/03/08 03:17:06;;;;;;;9.88;3.95;;;;;;;;;;5012468;28;20105;-43
2023/03/08 03:19:33;;;;;;;9.63;3.80;;;;;;;;;;5012527;28;20483;-43
2023/03/08 03:22:00;;;;;;;11.48;4.10;;;;;;;;;;5012429;28;20052;-43
2023/03/08 03:24:27;;;;;;;7.65;3.90;;;;;;;;;;5012360;28;20088;-43
2023/03/08 03:26:54;;;;;;;6.15;3.63;;;;;;;;;;5012283;28;20045;-43
2023/03/08 03:29:21;;;;;;;4.55;3.80;;;;;;;;;;5012315;28;20555;-44
2023/03/08 03:31:48;;;;;;;6.97;3.55;;;;;;;;;;5012401;28;20036;-43
2023/03/08 03:34:15;;;;;;;7.95;3.60;;;;;;;;;;5012206;28;20034;-45
2023/03/08 03:36:42;;;;;;;7.07;3.60;;;;;;;;;;5012129;28;20104;-43
2023/03/08 03:39:09;;;;;;;7.07;3.90;;;;;;;;;;5011279;28;20088;-43
2023/03/08 03:41:36;;;;;;;8.02;3.50;;;;;;;;;;5012062;28;20053;-44
2023/03/08 03:44:03;;;;;;;5.60;3.53;;;;;;;;;;5011960;28;20551;-43
2023/03/08 03:46:30;;;;;;;5.38;3.55;;;;;;;;;;5012073;28;20026;-43
2023/03/08 03:48:57;;;;;;;6.20;3.00;;;;;;;;;;5011922;28;20026;-44
2023/03/08 03:51:24;;;;;;;5.70;3.35;;;;;;;;;;5011972;28;20376;-44
2023/03/08 03:53:51;;;;;;;5.93;2.85;;;;;;;;;;5011879;28;20040;-44
2023/03/08 03:56:22;;;;;;;8.52;3.30;;;;;;;;;;5011869;28;20075;-43
2023/03/08 03:58:50;;;;;;;5.80;2.95;;;;;;;;;;5011946;28;20029;-43
2023/03/08 04:01:19;;;;;;;7.07;3.58;;;;;;;;;;5011827;28;20079;-43
2023/03/08 04:03:47;;;;;;;9.32;3.28;;;;;;;;;;5011448;28;20488;-43
2023/03/08 04:06:14;;;;;;;4.47;3.38;;;;;;;;;;5011682;28;20083;-43
2023/03/08 04:08:41;;;;;;;7.75;3.65;;;;;;;;;;5011860;28;20104;-43
2023/03/08 04:11:12;;;;;;;6.75;3.28;;;;;;;;;;5011652;28;20022;-43
2023/03/08 04:13:39;;;;;;;5.88;3.10;;;;;;;;;;5011691;28;20431;-44
2023/03/08 04:16:26;;;;;;;4.38;2.67;;;;;;;;;;5011443;28;20036;-43
2023/03/08 04:18:54;;;;;;;4.55;2.75;;;;;;;;;;5011584;28;20037;-43
2023/03/08 04:21:21;;;;;;;4.15;2.70;;;;;;;;;;5011606;28;20030;-43
2023/03/08 04:23:48;;;;;;;5.40;2.70;;;;;;;;;;5010188;28;20092;-43
2023/03/08 04:26:15;;;;;;;11.85;2.80;;;;;;;;;;5011306;28;20480;-44
2023/03/08 04:28:42;;;;;;;10.38;2.60;;;;;;;;;;5011477;28;20089;-43
2023/03/08 04:31:17;;;;;;;4.93;2.85;;;;;;;;;;5011406;28;20045;-45
2023/03/08 04:33:44;;;;;;;6.72;2.67;;;;;;;;;;5011340;28;20040;-43
2023/03/08 04:36:11;;;;;;;6.28;2.80;;;;;;;;;;5011273;28;20088;-43
2023/03/08 04:38:39;;;;;;;7.38;2.75;;;;;;;;;;5011229;28;20053;-43
2023/03/08 04:41:12;;;;;;;4.97;2.45;;;;;;;;;;5011575;28;20411;-43
2023/03/08 04:43:57;;;;;;;4.45;2.60;;;;;;;;;;5011152;28;20105;-44
2023/03/08 04:46:28;;;;;;;7.43;2.65;;;;;;;;;;5011169;28;20040;-43
2023/03/08 04:48:55;;;;;;;6.82;2.30;;;;;;;;;;5011147;28;20096;-43
2023/03/08 04:51:23;;;;;;;4.25;2.80;;;;;;;;;;5013965;28;20049;-43
2023/03/08 04:53:50;;;;;;;8.00;2.92;;;;;;;;;;5015215;28;20034;-44
2023/03/08 04:56:17;;;;;;;5.20;2.67;;;;;;;;;;5015199;28;20091;-45
2023/03/08 04:58:44;;;;;;;8.00;2.30;;;;;;;;;;5015099;28;20571;-43
2023/03/08 05:01:11;;;;;;;5.47;2.55;;;;;;;;;;5015063;28;20030;-44
2023/03/08 05:03:38;;;;;;;6.90;2.10;;;;;;;;;;5014853;28;20085;-43
2023/03/08 05:06:06;;;;;;;5.38;2.15;;;;;;;;;;5014961;28;20034;-44
2023/03/08 05:08:33;;;;;;;4.85;2.30;;;;;;;;;;5014962;28;20084;-43
2023/03/08 05:11:01;;;;;;;4.22;2.35;;;;;;;;;;5029996;28;20392;-43
2023/03/08 05:13:29;;;;;;;4.93;2.33;;;;;;;;;;5014823;28;20511;-43
2023/03/08 05:15:56;;;;;;;3.85;2.03;;;;;;;;;;5014963;28;20065;-43
2023/03/08 05:18:23;;;;;;;5.10;2.10;;;;;;;;;;5015096;28;20029;-43
2023/03/08 05:20:57;;;;;;;5.10;2.47;;;;;;;;;;5014488;28;20068;-43
2023/03/08 05:23:25;;;;;;;6.97;2.28;;;;;;;;;;5014671;28;20034;-43
2023/03/08 05:25:56;;;;;;;3.92;2.17;;;;;;;;;;5014566;28;20034;-43
2023/03/08 05:28:24;;;;;;;3.70;2.20;;;;;;;;;;5014569;28;20026;-43
2023/03/08 05:31:00;;;;;;;6.80;2.10;;;;;;;;;;5014395;28;20462;-44
2023/03/08 05:33:27;;;;;;;7.00;2.00;;;;;;;;;;5014365;28;20392;-43
2023/03/08 05:35:54;;;;;;;6.97;2.30;;;;;;;;;;5014297;28;20030;-43
2023/03/08 05:38:21;;;;;;;5.60;2.17;;;;;;;;;;5014404;28;20765;-44
2023/03/08 05:40:49;;;;;;;3.60;2.10;;;;;;;;;;5014443;28;20026;-43
2023/03/08 05:43:16;;;;;;;5.97;2.30;;;;;;;;;;5014207;28;20041;-43
2023/03/08 05:45:43;;;;;;;4.30;2.10;;;;;;;;;;5014329;28;20079;-44
2023/03/08 05:48:10;;;;;;;4.88;2.20;;;;;;;;;;5014249;28;20310;-46
2023/03/08 05:50:38;;;;;;;4.00;2.33;;;;;;;;;;5014053;28;20034;-46
2023/03/08 05:53:04;;;;;;;4.43;1.75;;;;;;;;;;5014021;28;20180;-45
2023/03/08 05:55:31;;;;;;;3.53;1.85;;;;;;;;;;5014047;28;20087;-45
2023/03/08 05:57:58;;;;;;;7.18;2.47;;;;;;;;;;5014076;28;20107;-45
2023/03/08 06:00:26;;;;;;;3.83;1.92;;;;;;;;;;5013757;28;20392;-44
2023/03/08 06:02:52;;;;;;;5.75;2.10;;;;;;;;;;5019730;28;20545;-43
2023/03/08 06:05:20;;;;;;;3.67;1.67;;;;;;;;;;5033573;28;20088;-43
2023/03/08 06:07:47;;;;;;;5.60;1.83;;;;;;;;;;5033156;28;20051;-43
2023/03/08 06:10:14;;;;;;;4.28;1.63;;;;;;;;;;5033515;28;20029;-45
2023/03/08 06:12:41;;;;;;;5.35;2.28;;;;;;;;;;5033589;28;20065;-44
2023/03/08 06:15:08;;;;;;;7.15;2.30;;;;;;;;;;5033438;28;20100;-44
2023/03/08 06:17:35;;;;;;;4.07;1.80;;;;;;;;;;5033419;28;20081;-43
2023/03/08 06:20:02;;;;;;;5.28;2.08;;;;;;;;;;5033468;28;20026;-44
2023/03/08 06:22:29;;;;;;;4.90;2.17;;;;;;;;;;5033363;28;20029;-43
2023/03/08 06:24:56;;;;;;;3.33;1.67;;;;;;;;;;5033298;28;20033;-46
2023/03/08 06:27:23;;;;;;;5.22;1.77;;;;;;;;;;5033306;28;20030;-44
2023/03/08 06:29:50;;;;;;;4.45;2.30;;;;;;;;;;5033238;28;20459;-43
2023/03/08 06:32:17;;;;;;;4.90;2.10;;;;;;;;;;5033474;28;20368;-44
2023/03/08 06:34:45;;;;;;;3.63;2.00;;;;;;;;;;5033155;28;20501;-44
2023/03/08 06:37:12;;;;;;;3.40;2.22;;;;;;;;;;5167676;22;20095;-42
2023/03/08 06:39:39;;;;;;;4.38;2.40;;;;;;;;;;5032260;28;20045;-43
2023/03/08 06:42:06;;;;;;;5.60;2.17;;;;;;;;;;5052948;28;20139;-43
2023/03/08 06:44:33;;;;;;;3.03;1.80;;;;;;;;;;5053029;28;20029;-42
2023/03/08 06:47:00;;;;;;;3.55;1.90;;;;;;;;;;5052610;28;20029;-40
2023/03/08 06:49:27;;;;;;;2.30;1.88;;;;;;;;;;5052608;28;20057;-39
2023/03/08 06:51:54;;;;;;;4.60;2.05;;;;;;;;;;5052872;28;20032;-39
2023/03/08 06:54:23;;;;;;;4.72;2.20;;;;;;;;;;5052809;28;20032;-39
2023/03/08 06:56:50;;;;;;;5.82;2.17;;;;;;;;;;5052589;28;20087;-39
2023/03/08 06:59:17;;;;;;;3.08;1.90;;;;;;;;;;5052612;28;20021;-40
2023/03/08 07:01:43;;;;;;;2.97;2.08;;;;;;;;;;5052638;28;20029;-39
2023/03/08 07:04:10;;;;;;;5.35;1.88;;;;;;;;;;5052487;28;20032;-39
2023/03/08 07:06:37;;;;;;;6.32;1.92;;;;;;;;;;5052530;28;20070;-40
2023/03/08 07:09:04;;;;;;;2.78;2.15;;;;;;;;;;5052385;28;20051;-40
2023/03/08 07:11:32;;;;;;;3.10;1.80;;;;;;;;;;5052374;28;20021;-39
2023/03/08 07:13:59;;;;;;;4.40;2.00;;;;;;;;;;5052105;28;20394;-39
2023/03/08 07:16:27;;;;;;;3.10;1.80;;;;;;;;;;5052264;28;20074;-39
2023/03/08 07:18:57;;;;;;;5.35;2.03;;;;;;;;;;5052182;28;20029;-45
2023/03/08 07:21:24;;;;;;;6.97;2.05;;;;;;;;;;5052293;28;20028;-43
2023/03/08 07:23:52;;;;;;;4.25;2.03;;;;;;;;;;5052464;28;20033;-42
2023/03/08 07:26:19;;;;;;;7.40;1.92;;;;;;;;;;5052249;28;20390;-42
2023/03/08 07:28:49;;;;;;;5.10;2.15;;;;;;;;;;5051438;28;20056;-43
2023/03/08 07:31:16;;;;;;;4.07;2.03;;;;;;;;;;5051633;28;20044;-44
2023/03/08 07:33:43;;;;;;;2.95;1.90;;;;;;;;;;5051804;28;20040;-43
2023/03/08 07:36:10;;;;;;;4.90;1.75;;;;;;;;;;5051813;28;20043;-43
2023/03/08 07:38:37;;;;;;;3.13;1.70;;;;;;;;;;5051497;28;20075;-44
2023/03/08 07:41:04;;;;;;;4.97;1.70;;;;;;;;;;5051815;28;20566;-43
2023/03/08 07:43:31;;;;;;;5.05;2.03;;;;;;;;;;5051766;28;20033;-43
2023/03/08 07:46:01;;;;;;;4.47;1.90;;;;;;;;;;5051739;28;20021;-43
2023/03/08 07:48:28;;;;;;;4.47;2.22;;;;;;;;;;5051676;28;20641;-43
2023/03/08 07:50:55;;;;;;;3.83;2.15;;;;;;;;;;5051706;28;20025;-43
2023/03/08 07:53:22;;;;;;;7.22;2.40;;;;;;;;;;5051721;28;20501;-44
2023/03/08 07:55:49;;;;;;;5.03;2.33;;;;;;;;;;5051572;28;20040;-43
2023/03/08 07:58:16;;;;;;;5.85;2.30;;;;;;;;;;5051488;28;20079;-44
2023/03/08 08:00:43;;;;;;;7.35;2.55;;;;;;;;;;5051516;28;20033;-43
2023/03/08 08:03:10;;;;;;;6.22;2.17;;;;;;;;;;5051397;28;20033;-43
2023/03/08 08:05:37;;;;;;;7.55;2.33;;;;;;;;;;5051594;28;20372;-45
2023/03/08 08:08:04;;;;;;;4.57;2.50;;;;;;;;;;5051286;28;20033;-43
2023/03/08 08:10:31;;;;;;;6.85;2.28;;;;;;;;;;5051328;28;20028;-43
2023/03/08 08:12:58;;;;;;;8.23;2.75;;;;;;;;;;5051369;28;20104;-43
2023/03/08 08:15:25;;;;;;;8.63;2.50;;;;;;;;;;5051318;28;20088;-43
2023/03/08 08:17:52;;;;;;;6.95;2.83;;;;;;;;;;5051065;28;20455;-44
2023/03/08 08:20:19;;;;;;;7.25;2.53;;;;;;;;;;5051191;28;20036;-43
2023/03/08 08:22:46;;;;;;;3.90;2.03;;;;;;;;;;5051101;28;20129;-43
2023/03/08 08:25:13;;;;;;;6.47;2.30;;;;;;;;;;5050604;28;20035;-45
2023/03/08 08:27:40;;;;;;;7.68;2.92;;;;;;;;;;5051013;28;20111;-43
2023/03/08 08:30:07;;;;;;;9.43;2.60;;;;;;;;;;5051115;28;20327;-44
2023/03/08 08:32:34;;;;;;;6.35;2.50;;;;;;;;;;5051027;28;20028;-39
2023/03/08 08:35:01;;;;;;;5.80;2.40;;;;;;;;;;5049961;28;20108;-39
2023/03/08 08:37:33;;;;;;;8.25;2.30;;;;;;;;;;5050692;28;20051;-43
2023/03/08 08:40:01;;;;;;;7.68;2.38;;;;;;;;;;5050837;28;20048;-43
2023/03/08 08:42:31;;;;;;;7.82;2.40;;;;;;;;;;5050840;28;20029;-43
2023/03/08 08:45:00;;;;;;;8.88;2.70;;;;;;;;;;5050802;28;20025;-40
2023/03/08 08:47:31;;;;;;;6.45;2.28;;;;;;;;;;5050824;28;20068;-40
2023/03/08 08:49:59;;;;;;;6.45;2.22;;;;;;;;;;5050760;28;20758;-40
2023/03/08 08:52:29;;;;;;;7.82;2.38;;;;;;;;;;5050880;28;20063;-39
2023/03/08 08:54:57;;;;;;;5.05;2.00;;;;;;;;;;5050812;28;20021;-40
2023/03/08 08:57:24;;;;;;;7.50;2.28;;;;;;;;;;5050787;28;20025;-41
2023/03/08 08:59:52;;;;;;;5.93;2.30;;;;;;;;;;5050793;28;20029;-43
2023/03/08 09:02:20;;;;;;;5.97;2.30;;;;;;;;;;5050691;28;20025;-43
2023/03/08 09:04:47;;;;;;;7.32;2.20;;;;;;;;;;5050811;28;20021;-45
2023/03/08 09:07:14;;;;;;;4.85;2.30;;;;;;;;;;5049642;28;20064;-43
2023/03/08 09:09:41;;;;;;;6.85;2.03;;;;;;;;;;5050669;28;20029;-43
2023/03/08 09:12:08;;;;;;;7.28;2.65;;;;;;;;;;5050730;28;20031;-43
2023/03/08 09:14:35;;;;;;;5.60;2.00;;;;;;;;;;5050458;28;20029;-43
2023/03/08 09:17:02;;;;;;;5.38;1.90;;;;;;;;;;5050557;28;20471;-43
2023/03/08 09:19:29;;;;;;;8.13;2.15;;;;;;;;;;5050617;28;20037;-45
2023/03/08 09:21:56;;;;;;;8.02;2.40;;;;;;;;;;5050572;28;20075;-44
2023/03/08 09:24:23;;;;;;;7.95;2.40;;;;;;;;;;5050478;28;20072;-43
2023/03/08 09:26:50;;;;;;;8.65;2.40;;;;;;;;;;5050336;28;20037;-44
2023/03/08 09:29:17;;;;;;;7.15;1.90;;;;;;;;;;5050201;28;20399;-39
2023/03/08 09:31:44;;;;;;;8.50;2.50;;;;;;;;;;5017294;28;20488;-46
2023/03/08 09:34:13;;;;;;;9.30;2.70;;;;;;;;;;5011056;28;20433;-39
2023/03/08 09:36:40;;;;;;;9.07;2.35;;;;;;;;;;5014193;28;20030;-41
2023/03/08 09:39:09;;;;;;;9.18;2.30;;;;;;;;;;5014550;28;20511;-44
2023/03/08 09:41:35;;;;;;;18.15;2.90;;;;;;;;;;5028589;28;20032;-44
2023/03/08 09:44:15;;;;;;;36.72;3.65;;;;;;;;;;5014205;28;20408;-44
2023/03/08 09:46:51;;;;;;;10.57;3.05;;;;;;;;;;5014229;28;20038;-41
2023/03/08 09:49:31;;;;;;;14.00;2.80;;;;;;;;;;5014159;28;20388;-41
2023/03/08 09:52:10;;;;;;;7.22;1.88;;;;;;;;;;5014865;28;20029;-45
2023/03/08 09:54:38;;;;;;;14.13;2.28;;;;;;;;;;5014065;28;20037;-40
2023/03/08 09:57:17;;;;;;;11.60;2.30;;;;;;;;;;5028844;28;20041;-43
2023/03/08 10:00:07;;;;;;;8.18;2.15;;;;;;;;;;5032157;28;20443;-42
2023/03/08 10:02:37;;;;;;;7.88;2.50;;;;;;;;;;5029568;28;20754;-41
2023/03/08 10:05:22;;;;;;;8.40;2.45;;;;;;;;;;5013381;28;20053;-42
2023/03/08 10:08:11;;;;;;;7.97;2.35;;;;;;;;;;5014532;28;20037;-43
2023/03/08 10:10:50;;;;;;;7.15;2.15;;;;;;;;;;5017348;28;20491;-43
2023/03/08 10:13:23;;;;;;;7.88;2.20;;;;;;;;;;5031904;28;20490;-43
2023/03/08 10:15:51;;;;;;;7.30;2.15;;;;;;;;;;5033560;28;20026;-43
2023/03/08 10:18:30;;;;;;;12.35;2.55;;;;;;;;;;5031848;28;20402;-42
2023/03/08 10:20:59;;;;;;;10.80;2.17;;;;;;;;;;5031847;28;20475;-42
2023/03/08 10:23:28;;;;;;;8.50;2.95;;;;;;;;;;5033255;28;20522;-39
2023/03/08 10:25:55;;;;;;;11.70;2.72;;;;;;;;;;5033218;28;20033;-40
2023/03/08 10:28:23;;;;;;;10.70;3.08;;;;;;;;;;5032138;28;20541;-41
2023/03/08 10:31:01;;;;;;;9.73;2.40;;;;;;;;;;5031497;28;20083;-39
2023/03/08 10:33:36;;;;;;;12.38;3.00;;;;;;;;;;5033153;28;20107;-38
2023/03/08 10:36:08;;;;;;;5.85;1.90;;;;;;;;;;5032976;28;20033;-38
2023/03/08 10:38:37;;;;;;;8.13;2.30;;;;;;;;;;5031316;28;20057;-41
2023/03/08 10:41:13;;;;;;;9.15;2.10;;;;;;;;;;5032366;28;20034;-42
2023/03/08 10:43:50;;;;;;;8.15;2.33;;;;;;;;;;5017535;28;20042;-38
2023/03/08 10:46:18;;;;;;;7.15;2.22;;;;;;;;;;5025941;28;20120;-40
2023/03/08 10:48:46;;;;;;;8.40;2.22;;;;;;;;;;5030623;28;20026;-40
2023/03/08 10:51:24;;;;;;;8.88;2.20;;;;;;;;;;5031885;28;20045;-42
2023/03/08 10:54:03;;;;;;;8.13;1.90;;;;;;;;;;5030931;28;20486;-40
2023/03/08 10:56:43;;;;;;;8.27;2.35;;;;;;;;;;5032230;28;20112;-49
2023/03/08 10:59:18;;;;;;;6.47;2.03;;;;;;;;;;5032502;28;20510;-41
2023/03/08 11:01:53;;;;;;;6.43;2.25;;;;;;;;;;5032334;28;20040;-41
2023/03/08 11:04:21;;;;;;;9.75;2.08;;;;;;;;;;5031061;28;20033;-41
2023/03/08 11:06:48;;;;;;;4.05;1.70;;;;;;;;;;5029943;28;20391;-40
2023/03/08 11:09:35;;;;;;;21.42;2.63;;;;;;;;;;5032435;28;20030;-45
2023/03/08 11:12:02;;;;;;;12.10;2.67;;;;;;;;;;5031779;28;20069;-43
2023/03/08 11:14:30;;;;;;;9.73;2.58;;;;;;;;;;5022515;28;20514;-45
2023/03/08 11:17:05;;;;;;;12.80;2.40;;;;;;;;;;5012228;28;20033;-40
2023/03/08 11:19:48;;;;;;;24.52;3.47;;;;;;;;;;5012386;28;20030;-37
2023/03/08 11:22:24;;;;;;;18.05;3.08;;;;;;;;;;5020206;28;20040;-33
2023/03/08 11:25:03;;;;;;;10.55;2.75;;;;;;;;;;5028549;28;20025;-38
2023/03/08 11:27:40;;;;;;;71.43;5.90;;;;;;;;;;5017228;28;20029;-36
2023/03/08 11:30:13;;;;;;;103.78;8.10;;;;;;;;;;5024380;28;20088;-39
2023/03/08 11:32:40;;;;;;;69.10;6.32;;;;;;;;;;5020846;28;20026;-40
2023/03/08 11:35:22;;;;;;;65.30;5.53;;;;;;;;;;5013122;28;20084;-39
2023/03/08 11:38:07;;;;;;;25.93;4.10;;;;;;;;;;5011788;28;20037;-39
2023/03/08 11:40:37;;;;;;;36.90;3.50;;;;;;;;;;5011954;28;20030;-37
2023/03/08 11:43:07;;;;;;;19.42;2.72;;;;;;;;;;5011914;28;20030;-37
2023/03/08 11:45:38;;;;;;;19.35;3.30;;;;;;;;;;5011910;28;20391;-38
2023/03/08 11:48:11;;;;;;;12.38;3.03;;;;;;;;;;5011838;28;20044;-38
2023/03/08 11:50:46;;;;;;;15.10;3.38;;;;;;;;;;5011882;28;20037;-38
2023/03/08 11:53:13;;;;;;;65.05;6.85;;;;;;;;;;5011799;28;20037;-38
2023/03/08 11:55:46;;;;;;;22.35;3.90;;;;;;;;;;5011830;28;20033;-40
2023/03/08 11:58:33;;;;;;;264.63;15.73;;;;;;;;;;5010247;28;20761;-38
2023/03/08 12:01:01;;;;;;;93.05;9.10;;;;;;;;;;5010887;28;20057;-38
2023/03/08 12:03:35;;;;;;;65.50;5.60;;;;;;;;;;5011594;28;20115;-36
2023/03/08 12:06:05;;;;;;;30.52;4.43;;;;;;;;;;5010950;28;20511;-36
2023/03/08 12:08:41;;;;;;;19.65;3.83;;;;;;;;;;5011244;28;20022;-35
2023/03/08 12:11:11;;;;;;;22.27;2.60;;;;;;;;;;5011542;28;20021;-47
2023/03/08 12:13:40;;;;;;;14.73;2.80;;;;;;;;;;5011244;28;20030;-47
2023/03/08 12:16:17;;;;;;;50.22;3.67;;;;;;;;;;5009964;28;20403;-47
2023/03/08 12:18:46;;;;;;;37.15;4.22;;;;;;;;;;5011119;28;20026;-48
2023/03/08 12:21:22;;;;;;;25.65;3.80;;;;;;;;;;5011416;28;20022;-48
2023/03/08 12:23:57;;;;;;;32.50;3.65;;;;;;;;;;5011265;28;20152;-48
2023/03/08 12:26:28;;;;;;;25.77;3.83;;;;;;;;;;5011298;28;20033;-48
2023/03/08 12:29:00;;;;;;;21.55;3.28;;;;;;;;;;5011326;28;20040;-47
2023/03/08 12:31:27;;;;;;;;;;;;;;;;;;5011788;28;20029;-47
2023/03/08 12:33:55;;;;;;;21.05;3.35;;;;;;;;;;5011228;28;19916;-48
2023/03/08 12:36:22;;;;;;;18.02;2.95;;;;;;;;;;5011199;28;20026;-47
2023/03/08 12:38:55;;;;;;;18.17;3.15;;;;;;;;;;5011015;28;20054;-47
2023/03/08 12:41:26;;;;;;;16.23;3.35;;;;;;;;;;5011163;28;20387;-48
2023/03/08 12:44:00;;;;;;;18.00;3.80;;;;;;;;;;5011079;28;20108;-48
2023/03/08 12:46:27;;;;;;;28.98;4.22;;;;;;;;;;5011148;28;20030;-48
2023/03/08 12:48:54;;;;;;;25.70;3.60;;;;;;;;;;5011179;28;20052;-48
2023/03/08 12:51:25;;;;;;;25.20;4.07;;;;;;;;;;5011118;28;20022;-48
2023/03/08 12:53:52;;;;;;;20.60;3.22;;;;;;;;;;5011029;28;20037;-48
2023/03/08 12:56:22;;;;;;;26.33;3.38;;;;;;;;;;5011143;28;20030;-48
2023/03/08 12:58:51;;;;;;;32.63;3.88;;;;;;;;;;5010773;28;20502;-48
2023/03/08 13:01:24;;;;;;;22.88;3.42;;;;;;;;;;5010974;28;20388;-48
2023/03/08 13:03:51;;;;;;;25.00;4.32;;;;;;;;;;5011009;28;20084;-48
2023/03/08 13:06:27;;;;;;;21.25;4.07;;;;;;;;;;5011060;28;20099;-48
2023/03/08 13:08:58;;;;;;;24.35;3.80;;;;;;;;;;5010988;28;20030;-49
2023/03/08 13:11:25;;;;;;;20.02;3.42;;;;;;;;;;5011954;28;20387;-48
2023/03/08 13:13:56;;;;;;;30.50;3.60;;;;;;;;;;5014868;28;20088;-48
2023/03/08 13:16:31;;;;;;;21.08;3.40;;;;;;;;;;5014799;28;20033;-48
2023/03/08 13:19:07;;;;;;;16.15;3.53;;;;;;;;;;5014722;28;20045;-48
2023/03/08 13:21:40;;;;;;;35.97;4.03;;;;;;;;;;5014671;28;20052;-48
2023/03/08 13:24:25;;;;;;;15.27;3.17;;;;;;;;;;5014573;28;20059;-48
2023/03/08 13:27:12;;;;;;;15.05;3.38;;;;;;;;;;5014592;28;20029;-48
2023/03/08 13:29:41;;;;;;;11.23;3.17;;;;;;;;;;4983949;28;20069;-48
2023/03/08 13:32:13;;;;;;;13.10;3.20;;;;;;;;;;5014555;28;20018;-48
2023/03/08 13:34:40;;;;;;;11.27;3.53;;;;;;;;;;5014381;28;20393;-47
2023/03/08 13:37:24;;;;;;;13.65;3.40;;;;;;;;;;5014239;28;20395;-48
2023/03/08 13:39:55;;;;;;;15.60;3.22;;;;;;;;;;5014038;28;20526;-48
2023/03/08 13:42:25;;;;;;;11.70;3.33;;;;;;;;;;5012799;28;20088;-48
2023/03/08 13:44:53;;;;;;;11.82;3.28;;;;;;;;;;5014356;28;20049;-48
2023/03/08 13:47:23;;;;;;;10.07;3.00;;;;;;;;;;5014070;28;20048;-48
2023/03/08 13:49:51;;;;;;;8.32;3.30;;;;;;;;;;5014285;28;20110;-48
2023/03/08 13:52:23;;;;;;;8.88;3.40;;;;;;;;;;5014035;28;20053;-48
2023/03/08 13:54:55;;;;;;;14.73;3.17;;;;;;;;;;5014131;28;20041;-48
2023/03/08 13:57:22;;;;;;;;;;;;;;;;;;5014461;28;20054;-48
2023/03/08 13:59:50;;;;;;;14.30;3.33;;;;;;;;;;5013903;28;20409;-48
2023/03/08 14:02:21;;;;;;;11.10;2.90;;;;;;;;;;5013914;28;20484;-48
2023/03/08 14:04:48;;;;;;;11.68;2.78;;;;;;;;;;5013982;28;20025;-48
2023/03/08 14:07:20;;;;;;;12.18;2.90;;;;;;;;;;5013904;28;20021;-48
2023/03/08 14:09:46;;;;;;;15.27;3.00;;;;;;;;;;5013968;28;20049;-48
2023/03/08 14:12:16;;;;;;;21.05;3.08;;;;;;;;;;5013863;28;20105;-47
2023/03/08 14:14:44;;;;;;;17.48;3.47;;;;;;;;;;5013707;28;20385;-47
2023/03/08 14:17:21;;;;;;;10.38;3.03;;;;;;;;;;5013615;28;20464;-48
2023/03/08 14:19:52;;;;;;;13.98;2.90;;;;;;;;;;5013727;28;20073;-48
2023/03/08 14:22:20;;;;;;;12.60;2.90;;;;;;;;;;5012953;28;20121;-47
2023/03/08 14:25:03;;;;;;;12.82;3.25;;;;;;;;;;5012925;28;20073;-47
2023/03/08 14:27:44;;;;;;;12.50;2.80;;;;;;;;;;5013248;28;20037;-47
2023/03/08 14:30:14;;;;;;;17.40;3.00;;;;;;;;;;5013354;28;20030;-44
2023/03/08 14:32:41;;;;;;;15.25;2.90;;;;;;;;;;5013460;28;20622;-42
2023/03/08 14:35:23;;;;;;;10.00;2.92;;;;;;;;;;5013215;28;20148;-42
2023/03/08 14:37:54;;;;;;;13.13;2.83;;;;;;;;;;5012964;28;20510;-42
2023/03/08 14:40:24;;;;;;;18.67;2.95;;;;;;;;;;5013234;28;20321;-42
2023/03/08 14:42:53;;;;;;;17.50;3.42;;;;;;;;;;5013134;28;20129;-42
2023/03/08 14:45:22;;;;;;;13.15;3.35;;;;;;;;;;5013178;28;20025;-42
2023/03/08 14:47:54;;;;;;;13.32;3.35;;;;;;;;;;5013025;28;20060;-41
2023/03/08 14:50:24;;;;;;;10.85;3.22;;;;;;;;;;5013173;28;20033;-38